Camden, IL (62319)

7:33 AM CST on February 08, 2016 (GMT -0600)
Augusta | | Change Station
CLOSE
Current Station
Personal Weather Station
Location: Augusta, IL
Elevation: 682 ft
Nearby Weather Stations
Active Advisory: Special Statement

Elev 682 ft 40.23 °N, 90.95 °W | Updated 15 minutes ago

Snow
Snow
22.1 °F
Feels Like 13 °F
N
7.8
Wind Variable Wind from NW

Today
High -- | Low -- °F
--% Chance of Precip.
Yesterday
High -- | Low -- °F
Precip. -- in
Pressure 29.81 in
Visibility 7.0 miles
Clouds Scattered Clouds 1700 ft
Mostly Cloudy 2600 ft
Overcast 3700 ft
Windchill 13 °F
Dew Point 18 °F
Humidity 85%
Rainfall 0.00 in
Snow Depth Not available.
7:04 AM 5:29 PM
Waning Crescent, 0% visible
METAR KMQB 081315Z AUTO 30015G20KT 7SM -SN SCT017 BKN026 OVC037 M05/M07 A2981 RMK AO2 T10541069
Pressure 29.81 in
Visibility 7.0 miles
Clouds Scattered Clouds 1700 ft
Mostly Cloudy 2600 ft
Overcast 3700 ft
Windchill 13 °F
Dew Point 18 °F
Humidity 85%
Rainfall 0.00 in
Snow Depth Not available.
7:04 AM 5:29 PM
Waning Crescent, 0% visible
METAR KMQB 081315Z AUTO 30015G20KT 7SM -SN SCT017 BKN026 OVC037 M05/M07 A2981 RMK AO2 T10541069

10-Day Weather Forecast

Almanac

Astronomy

Feb. 08, 2016 Rise Set
Actual Time
Civil Twilight
Nautical Twilight
Astronomical Twilight
Moon
Length of Visible Light
Length of Day
Tomorrow will be .
, % of the Moon is Illuminated

Today's Extremes

State Highs State Lows

Community

WunderPhotos

Upload Photos

1,891,434 photos uploaded!

WunderBlog® & News

Nearby

Air Quality

  Air Quality AQ Index Pollutant
Not available.

Snow Depth

Station Depth Elevation

Earthquake Activity

City Distance Mag. Time & Date
Minimum magnitude displayed is 2.5.

Coastal Water Temperatures

Place Temperature

Stations

Nearby Weather Stations

Station Location Temp. Windchill Dew Point Humidity Wind Precip. Elev Updated Type
                   

Watches & Warnings

Special Statement
Issued: 7:30 AM CST Feb. 8, 2016 – National Weather Service

Scattered snow showers over central and southeast Illinois this
morning will create areas of minor accumulations and icy
conditions on roadways. Some Road surfaces will be very slick this
morning.


Onton

625 am CST Mon Feb 8 2016

Scattered snow showers developing over central Illinois this
morning will create areas of minor accumulations on roadways. Some
Road surfaces will be very slick for the morning commute.


Onton


625 am CST Mon Feb 8 2016

Scattered snow showers developing over central Illinois this
morning will create areas of minor accumulations on roadways. Some
Road surfaces will be very slick for the morning commute.


Onton